Time;durP1;ratioP1;P1;durP2;ratioP2;P2;SDS_P1;SDS_P2;PMS_P1;PMS_P2;Temp;Humidity;BMP_temperature;BMP_pressure;BME280_temperature;BME280_humidity;BME280_pressure;Samples;Min_cycle;Max_cycle;Signal;HPM_P1;HPM_P2
2022/02/23 00:00:26;;;;;;;1.67;0.82;;;;;;;5.11;83.16;96255.72;5095325;28;20035;-67
2022/02/23 00:02:52;;;;;;;0.60;0.60;;;;;;;5.15;82.92;96258.22;5095405;28;20035;-66
2022/02/23 00:05:18;;;;;;;1.13;0.70;;;;;;;5.07;81.97;96260.13;5095149;28;20037;-66
2022/02/23 00:07:43;;;;;;;0.73;0.70;;;;;;;5.04;81.82;96258.47;5095214;28;20020;-66
2022/02/23 00:10:09;;;;;;;0.70;0.70;;;;;;;5.03;81.70;96259.34;5095054;28;20053;-64
2022/02/23 00:12:35;;;;;;;0.60;0.60;;;;;;;5.04;81.26;96262.78;5094966;28;20013;-67
2022/02/23 00:15:02;;;;;;;0.70;0.70;;;;;;;5.08;81.55;96258.41;5094915;28;20039;-64
2022/02/23 00:17:27;;;;;;;0.70;0.70;;;;;;;5.10;81.57;96261.81;5094766;28;20016;-67
2022/02/23 00:19:53;;;;;;;0.68;0.68;;;;;;;5.06;81.79;96256.69;5093889;28;20154;-67
2022/02/23 00:22:19;;;;;;;0.63;0.60;;;;;;;5.08;81.85;96259.25;5094870;28;20020;-66
2022/02/23 00:24:45;;;;;;;1.20;1.00;;;;;;;5.13;81.59;96253.97;5094779;28;20028;-65
2022/02/23 00:27:11;;;;;;;0.60;0.60;;;;;;;5.17;81.68;96255.59;5094816;28;20020;-65
2022/02/23 00:29:36;;;;;;;0.60;0.60;;;;;;;5.15;81.22;96247.03;5094676;28;20027;-62
2022/02/23 00:32:03;;;;;;;0.65;0.65;;;;;;;5.19;81.36;96253.84;5094614;28;20052;-67
2022/02/23 00:34:28;;;;;;;0.98;0.90;;;;;;;5.20;80.94;96257.31;5094665;28;20055;-65
2022/02/23 00:36:56;;;;;;;1.02;1.02;;;;;;;5.21;80.84;96239.09;5094747;28;20024;-68
2022/02/23 00:39:23;;;;;;;5.97;5.47;;;;;;;5.22;80.56;96258.97;5094672;28;20020;-67
2022/02/23 00:41:50;;;;;;;1.10;0.90;;;;;;;5.22;80.84;96253.78;5094660;28;20020;-65
2022/02/23 00:44:16;;;;;;;0.52;0.52;;;;;;;5.18;80.32;96247.78;5094537;28;20024;-64
2022/02/23 00:46:42;;;;;;;1.95;1.08;;;;;;;5.16;80.46;96251.31;5094467;28;20027;-64
2022/02/23 00:49:08;;;;;;;0.88;0.88;;;;;;;5.22;80.56;96253.78;5094319;28;20386;-65
2022/02/23 00:51:33;;;;;;;0.77;0.70;;;;;;;5.13;79.87;96254.84;5076279;28;20020;-67
2022/02/23 00:53:59;;;;;;;0.57;0.57;;;;;;;5.00;80.68;96254.22;5094117;28;20107;-67
2022/02/23 00:56:25;;;;;;;0.60;0.60;;;;;;;4.98;80.95;96250.81;5094078;28;20020;-67
2022/02/23 00:58:51;;;;;;;0.70;0.70;;;;;;;4.91;80.87;96244.06;5094199;28;20103;-66
2022/02/23 01:01:17;;;;;;;0.70;0.70;;;;;;;4.88;80.67;96246.69;5094266;28;20028;-67
2022/02/23 01:03:43;;;;;;;0.80;0.80;;;;;;;4.80;81.57;96247.72;5094185;28;20025;-67
2022/02/23 01:06:08;;;;;;;0.60;0.60;;;;;;;4.85;81.36;96254.53;5094135;28;20046;-66
2022/02/23 01:08:35;;;;;;;0.90;0.80;;;;;;;4.85;81.43;96255.38;5093972;28;20032;-67
2022/02/23 01:11:00;;;;;;;2.58;0.82;;;;;;;4.87;81.35;96257.94;5093932;28;20071;-65
2022/02/23 01:13:26;;;;;;;0.50;0.50;;;;;;;4.88;81.14;96263.09;5093699;28;20430;-66
2022/02/23 01:15:52;;;;;;;0.70;0.70;;;;;;;4.76;80.49;96269.38;5093980;28;20107;-66
2022/02/23 01:18:17;;;;;;;0.77;0.77;;;;;;;4.73;81.18;96258.22;5093682;28;20016;-64
2022/02/23 01:20:43;;;;;;;0.60;0.60;;;;;;;4.67;81.69;96269.56;5093504;28;20079;-65
2022/02/23 01:23:09;;;;;;;0.60;0.60;;;;;;;4.64;81.62;96267.03;5093684;28;20034;-65
2022/02/23 01:25:35;;;;;;;0.65;0.65;;;;;;;4.60;81.25;96258.44;5093755;28;20023;-64
2022/02/23 01:28:04;;;;;;;0.73;0.73;;;;;;;4.61;81.37;96267.91;5093651;28;20020;-64
2022/02/23 01:30:31;;;;;;;0.60;0.60;;;;;;;4.73;80.97;96271.19;5093295;28;20021;-66
2022/02/23 01:32:56;;;;;;;0.80;0.80;;;;;;;4.72;80.94;96267.72;5093471;28;20024;-64
2022/02/23 01:35:23;;;;;;;1.00;0.90;;;;;;;4.72;80.77;96272.91;5093585;28;20047;-66
2022/02/23 01:37:49;;;;;;;0.75;0.75;;;;;;;4.77;80.93;96271.09;5093544;28;20040;-67
2022/02/23 01:40:15;;;;;;;0.88;0.73;;;;;;;4.75;81.37;96274.56;5093643;28;20424;-67
2022/02/23 01:42:41;;;;;;;1.25;0.70;;;;;;;4.72;81.36;96272.91;5093456;28;20055;-66
2022/02/23 01:45:08;;;;;;;3.70;0.90;;;;;;;4.78;81.19;96283.16;5093332;28;20024;-66
2022/02/23 01:47:33;;;;;;;1.00;0.90;;;;;;;4.75;81.31;96287.53;5093293;28;20443;-66
2022/02/23 01:49:59;;;;;;;1.00;0.90;;;;;;;4.74;80.96;96286.69;5093425;28;20020;-64
2022/02/23 01:52:25;;;;;;;1.73;1.35;;;;;;;4.70;81.47;96291.97;5093338;28;20024;-65
2022/02/23 01:54:55;;;;;;;1.30;1.20;;;;;;;4.70;81.50;96295.41;5093174;28;20081;-64
2022/02/23 01:57:21;;;;;;;1.55;1.17;;;;;;;4.70;81.83;96290.25;5093258;28;20098;-65
2022/02/23 01:59:48;;;;;;;1.15;1.05;;;;;;;4.71;81.80;96301.44;5093277;28;20024;-64
2022/02/23 02:02:14;;;;;;;1.20;1.10;;;;;;;4.71;82.08;96298.84;5093113;28;20039;-65
2022/02/23 02:04:40;;;;;;;1.08;0.82;;;;;;;4.64;82.09;96306.72;5093205;28;20020;-65
2022/02/23 02:07:06;;;;;;;1.13;1.02;;;;;;;4.61;81.89;96311.13;5093099;28;20545;-67
2022/02/23 02:09:31;;;;;;;1.67;1.58;;;;;;;4.64;81.95;96308.50;5093116;28;20020;-65
2022/02/23 02:11:57;;;;;;;6.45;4.22;;;;;;;4.69;81.82;96317.00;5093161;28;20028;-64
2022/02/23 02:14:23;;;;;;;8.65;3.58;;;;;;;4.60;81.57;96317.19;5093067;28;20435;-64
2022/02/23 02:16:49;;;;;;;6.07;3.15;;;;;;;4.52;81.58;96314.75;5093041;28;20043;-64
2022/02/23 02:19:14;;;;;;;1.45;1.23;;;;;;;4.58;81.94;96318.94;5092718;28;20426;-65
2022/02/23 02:21:55;;;;;;;1.27;1.10;;;;;;;4.63;82.41;96322.31;5093166;28;20055;-66
2022/02/23 02:24:26;;;;;;;1.40;1.30;;;;;;;4.62;82.21;96323.19;5093155;28;20032;-64
2022/02/23 02:26:53;;;;;;;1.13;1.00;;;;;;;4.59;82.07;96325.84;5092974;28;20359;-66
2022/02/23 02:29:18;;;;;;;1.00;0.93;;;;;;;4.58;82.60;96318.94;5092985;28;20088;-65
2022/02/23 02:31:45;;;;;;;2.03;1.40;;;;;;;4.56;82.34;96324.16;5093020;28;20481;-64
2022/02/23 02:34:10;;;;;;;1.08;1.08;;;;;;;4.50;82.58;96325.13;5092841;28;20020;-64
2022/02/23 02:36:36;;;;;;;1.13;1.10;;;;;;;4.50;82.75;96329.44;5092869;28;20028;-65
2022/02/23 02:39:04;;;;;;;1.27;1.17;;;;;;;4.48;82.84;96329.47;5092970;28;20028;-67
2022/02/23 02:41:30;;;;;;;1.40;1.30;;;;;;;4.59;82.90;96336.19;5093675;28;20169;-67
2022/02/23 02:43:55;;;;;;;1.20;1.10;;;;;;;4.54;82.53;96337.13;5096904;28;20106;-64
2022/02/23 02:46:21;;;;;;;1.30;1.20;;;;;;;4.52;82.66;96338.88;5096894;28;20032;-67
2022/02/23 02:48:46;;;;;;;1.30;1.20;;;;;;;4.51;83.12;96341.50;5096744;28;20031;-64
2022/02/23 02:51:12;;;;;;;1.50;1.40;;;;;;;4.46;83.11;96351.09;5096698;28;20103;-65
2022/02/23 02:53:37;;;;;;;1.70;1.60;;;;;;;4.41;83.17;96357.22;5096478;28;20028;-67
2022/02/23 02:56:03;;;;;;;1.38;1.27;;;;;;;4.48;83.09;96347.59;5096569;28;20047;-67
2022/02/23 02:58:29;;;;;;;1.58;1.48;;;;;;;4.46;83.12;96348.50;5096724;28;20024;-64
2022/02/23 03:00:55;;;;;;;2.03;1.85;;;;;;;4.41;83.21;96356.34;5096712;28;20074;-67
2022/02/23 03:03:20;;;;;;;1.55;1.42;;;;;;;4.45;83.35;96355.41;5096628;28;20103;-65
2022/02/23 03:05:47;;;;;;;1.40;1.30;;;;;;;4.42;83.74;96364.09;5096315;28;20020;-65
2022/02/23 03:08:14;;;;;;;1.30;1.20;;;;;;;4.39;83.39;96364.16;5096229;28;20030;-65
2022/02/23 03:10:43;;;;;;;4.95;1.73;;;;;;;4.35;83.48;96369.41;5096323;28;20024;-66
2022/02/23 03:13:09;;;;;;;1.30;1.20;;;;;;;4.30;83.21;96364.28;5096196;28;20039;-64
2022/02/23 03:15:35;;;;;;;1.40;1.15;;;;;;;4.30;82.70;96372.94;5096237;28;20062;-64
2022/02/23 03:18:00;;;;;;;1.52;1.35;;;;;;;4.30;82.94;96378.09;5096342;28;20413;-67
2022/02/23 03:20:26;;;;;;;1.05;1.00;;;;;;;4.25;82.54;96379.06;5095939;28;20485;-66
2022/02/23 03:22:52;;;;;;;1.17;1.08;;;;;;;4.23;83.46;96386.84;5096115;28;20427;-64
2022/02/23 03:25:17;;;;;;;1.10;1.00;;;;;;;4.21;82.85;96378.25;5095901;28;20028;-67
2022/02/23 03:27:43;;;;;;;1.25;1.15;;;;;;;4.25;82.85;96384.25;5095975;28;20027;-64
2022/02/23 03:30:09;;;;;;;1.00;1.00;;;;;;;4.28;82.95;96390.22;5095840;28;20051;-65
2022/02/23 03:32:34;;;;;;;1.38;1.27;;;;;;;4.26;82.94;96385.94;5095847;28;20397;-67
2022/02/23 03:35:00;;;;;;;1.08;1.02;;;;;;;4.23;82.98;96404.13;5095824;28;20019;-65
2022/02/23 03:37:25;;;;;;;1.58;1.20;;;;;;;4.24;82.96;96396.31;5095879;28;20355;-65
2022/02/23 03:39:51;;;;;;;1.88;1.27;;;;;;;4.35;82.54;96401.34;5077545;28;20031;-64
2022/02/23 03:42:17;;;;;;;0.88;0.85;;;;;;;4.38;82.41;96403.03;5095764;28;20531;-64
2022/02/23 03:44:43;;;;;;;1.50;1.40;;;;;;;4.46;82.76;96410.69;5095619;28;20021;-64
2022/02/23 03:47:09;;;;;;;1.38;1.27;;;;;;;4.46;81.92;96411.56;5095525;28;20023;-66
2022/02/23 03:49:34;;;;;;;3.50;1.20;;;;;;;4.48;81.76;96420.13;5095675;28;20028;-64
2022/02/23 03:52:00;;;;;;;1.90;1.70;;;;;;;4.52;82.07;96418.38;5095461;28;20145;-64
2022/02/23 03:54:26;;;;;;;1.33;1.23;;;;;;;4.51;81.55;96414.03;5095446;28;20039;-64
2022/02/23 03:56:51;;;;;;;1.65;1.13;;;;;;;4.48;81.00;96427.06;5095500;28;20483;-66
2022/02/23 03:59:17;;;;;;;0.95;0.95;;;;;;;4.46;81.08;96424.50;5095578;28;20107;-65
2022/02/23 04:01:47;;;;;;;1.33;1.23;;;;;;;4.49;81.05;96426.19;5095473;28;20031;-65
2022/02/23 04:04:14;;;;;;;1.33;1.20;;;;;;;4.55;81.49;96429.53;5095333;28;20024;-67
2022/02/23 04:06:40;;;;;;;1.23;1.13;;;;;;;4.60;81.91;96429.44;5095215;28;20073;-68
2022/02/23 04:09:08;;;;;;;1.10;1.00;;;;;;;4.55;80.73;96426.09;5095312;28;20420;-66
2022/02/23 04:11:34;;;;;;;0.80;0.80;;;;;;;4.52;81.03;96433.91;5095099;28;20020;-66
2022/02/23 04:14:00;;;;;;;1.67;0.90;;;;;;;4.54;80.53;96437.31;5094971;28;20038;-67
2022/02/23 04:16:26;;;;;;;0.82;0.80;;;;;;;4.52;80.29;96431.31;5095125;28;20102;-66
2022/02/23 04:18:53;;;;;;;0.98;0.88;;;;;;;4.52;79.99;96436.50;5095039;28;20062;-65
2022/02/23 04:21:19;;;;;;;0.95;0.88;;;;;;;4.59;80.65;96442.44;5094687;28;20093;-67
2022/02/23 04:23:45;;;;;;;1.10;1.00;;;;;;;4.61;80.74;96443.28;5094981;28;20416;-65
2022/02/23 04:26:12;;;;;;;0.80;0.80;;;;;;;4.64;80.82;96446.66;5094922;28;20602;-65
2022/02/23 04:28:38;;;;;;;1.05;0.95;;;;;;;4.64;80.78;96449.25;5094935;28;20055;-65
2022/02/23 04:31:03;;;;;;;0.80;0.70;;;;;;;4.67;80.47;96445.78;5094717;28;20477;-67
2022/02/23 04:33:29;;;;;;;1.20;0.98;;;;;;;4.68;80.33;96439.69;5094656;28;20031;-65
2022/02/23 04:35:55;;;;;;;0.90;0.90;;;;;;;4.67;80.05;96441.44;5094813;28;20351;-65
2022/02/23 04:38:21;;;;;;;1.13;1.00;;;;;;;4.70;80.04;96450.91;5094685;28;20069;-65
2022/02/23 04:40:47;;;;;;;0.90;0.90;;;;;;;4.70;80.16;96448.31;5094603;28;20024;-65
2022/02/23 04:43:14;;;;;;;4.07;1.00;;;;;;;4.71;80.45;96443.97;5094415;28;20031;-65
2022/02/23 04:45:40;;;;;;;1.17;1.13;;;;;;;4.68;80.61;96450.94;5094490;28;20029;-65
2022/02/23 04:48:07;;;;;;;1.10;1.00;;;;;;;4.61;80.74;96449.28;5094506;28;20036;-66
2022/02/23 04:50:33;;;;;;;1.20;1.10;;;;;;;4.49;80.83;96441.72;5094441;28;20524;-68
2022/02/23 04:52:59;;;;;;;1.15;1.05;;;;;;;4.43;80.29;96453.88;5094325;28;20024;-67
2022/02/23 04:55:25;;;;;;;0.80;0.80;;;;;;;4.41;81.15;96459.97;5094239;28;20058;-65
2022/02/23 04:57:51;;;;;;;1.48;1.38;;;;;;;4.44;81.72;96462.53;5094308;28;20032;-68
2022/02/23 05:00:17;;;;;;;4.00;1.50;;;;;;;4.49;81.50;96465.88;5094190;28;20099;-67
2022/02/23 05:02:42;;;;;;;2.13;1.92;;;;;;;4.54;81.70;96474.47;5094308;28;20055;-65
2022/02/23 05:05:08;;;;;;;2.83;1.35;;;;;;;4.61;82.18;96480.38;5075614;28;20051;-65
2022/02/23 05:07:35;;;;;;;2.60;1.85;;;;;;;4.67;81.74;96480.28;5094100;28;20020;-66
2022/02/23 05:10:01;;;;;;;2.08;1.88;;;;;;;4.62;81.06;96482.13;5094150;28;20103;-66
2022/02/23 05:12:27;;;;;;;2.72;2.50;;;;;;;4.63;81.21;96490.72;5093998;28;20465;-66
2022/02/23 05:14:53;;;;;;;3.45;3.15;;;;;;;4.71;81.08;96486.31;5094005;28;20012;-66
2022/02/23 05:17:19;;;;;;;3.03;2.80;;;;;;;4.80;81.39;96493.94;5093908;28;20031;-66
2022/02/23 05:19:45;;;;;;;1.63;1.52;;;;;;;4.85;81.81;96493.84;5093558;28;20067;-65
2022/02/23 05:22:11;;;;;;;2.90;2.08;;;;;;;4.92;81.28;96502.41;5093770;28;20016;-65
2022/02/23 05:24:36;;;;;;;1.60;1.48;;;;;;;4.96;81.21;96504.06;5093744;28;20161;-65
2022/02/23 05:27:03;;;;;;;1.70;1.60;;;;;;;5.00;81.08;96512.66;5093773;28;20477;-65
2022/02/23 05:29:31;;;;;;;2.20;2.00;;;;;;;5.02;81.01;96516.06;5093713;28;20038;-67
2022/02/23 05:31:57;;;;;;;1.90;1.80;;;;;;;5.06;81.21;96518.56;5075465;28;20042;-64
2022/02/23 05:34:23;;;;;;;2.58;1.60;;;;;;;5.08;80.79;96526.31;5093547;28;20047;-68
2022/02/23 05:36:49;;;;;;;1.35;1.25;;;;;;;5.16;80.44;96536.59;5093524;28;20462;-67
2022/02/23 05:39:15;;;;;;;1.60;1.50;;;;;;;5.14;80.00;96534.00;5093667;28;20028;-68
2022/02/23 05:41:41;;;;;;;1.70;1.60;;;;;;;5.16;80.13;96534.00;5093441;28;20035;-67
2022/02/23 05:44:06;;;;;;;4.40;1.98;;;;;;;5.21;80.38;96534.75;5093511;28;20012;-68
2022/02/23 05:46:32;;;;;;;1.25;1.15;;;;;;;5.19;80.05;96539.13;5093317;28;20026;-66
2022/02/23 05:48:58;;;;;;;1.77;1.67;;;;;;;5.14;79.91;96541.78;5093410;28;20413;-67
2022/02/23 05:51:35;;;;;;;2.15;1.83;;;;;;;5.11;80.36;96546.16;5093376;28;20427;-67
2022/02/23 05:54:02;;;;;;;2.40;2.10;;;;;;;5.16;80.36;96552.16;5093278;28;20115;-66
2022/02/23 05:56:29;;;;;;;1.55;1.45;;;;;;;5.17;80.40;96546.94;5093322;28;20020;-67
2022/02/23 05:58:55;;;;;;;1.80;1.70;;;;;;;5.21;80.46;96549.47;5093183;28;20012;-68
2022/02/23 06:01:21;;;;;;;1.83;1.70;;;;;;;5.22;80.49;96549.47;5093270;28;20027;-65
2022/02/23 06:03:47;;;;;;;2.08;1.88;;;;;;;5.27;80.59;96552.81;5093326;28;20492;-67
2022/02/23 06:06:13;;;;;;;2.45;1.90;;;;;;;5.27;80.40;96555.41;5093197;28;20048;-67
2022/02/23 06:08:39;;;;;;;1.70;1.50;;;;;;;5.25;80.06;96551.13;5093073;28;20420;-67
2022/02/23 06:11:05;;;;;;;2.00;1.80;;;;;;;5.35;80.28;96559.59;5093065;28;20016;-67
2022/02/23 06:13:31;;;;;;;3.75;2.58;;;;;;;5.41;80.12;96562.09;5093046;28;20521;-66
2022/02/23 06:15:57;;;;;;;2.03;1.83;;;;;;;5.44;80.47;96562.91;5093115;28;20024;-68
2022/02/23 06:18:23;;;;;;;2.15;1.90;;;;;;;5.44;80.07;96570.72;5097292;28;20098;-65
2022/02/23 06:20:49;;;;;;;2.40;2.20;;;;;;;5.53;80.12;96574.88;5097214;28;20531;-66
2022/02/23 06:23:15;;;;;;;2.53;2.30;;;;;;;5.52;79.89;96567.13;5097436;28;20023;-66
2022/02/23 06:25:41;;;;;;;2.88;2.17;;;;;;;5.49;79.75;96570.63;5097250;28;20016;-65
2022/02/23 06:28:06;;;;;;;2.65;2.45;;;;;;;5.47;79.24;96574.13;5097142;28;20024;-65
2022/02/23 06:30:32;;;;;;;2.55;2.35;;;;;;;5.40;79.58;96576.84;5097028;28;20024;-67
2022/02/23 06:32:58;;;;;;;1.85;1.75;;;;;;;5.42;79.43;96580.25;5096923;28;20035;-68
2022/02/23 06:35:24;;;;;;;2.55;1.50;;;;;;;5.34;79.81;96584.72;5096912;28;20020;-68
2022/02/23 06:37:50;;;;;;;1.60;1.50;;;;;;;5.33;79.43;96584.75;5096924;28;20461;-68
2022/02/23 06:40:16;;;;;;;1.50;1.40;;;;;;;5.34;79.13;96591.63;5096940;28;20020;-67
2022/02/23 06:42:42;;;;;;;1.73;1.23;;;;;;;5.33;78.62;96600.31;5096947;28;20362;-67
2022/02/23 06:45:08;;;;;;;0.82;0.82;;;;;;;5.36;79.40;96603.69;5096583;28;20533;-65
2022/02/23 06:47:34;;;;;;;1.13;1.05;;;;;;;5.44;80.56;96600.97;5096778;28;20019;-67
2022/02/23 06:50:00;;;;;;;0.85;0.82;;;;;;;5.46;79.55;96603.53;5096723;28;20020;-65
2022/02/23 06:52:30;;;;;;;1.20;1.10;;;;;;;5.47;79.09;96608.72;5096770;28;20108;-65
2022/02/23 06:54:56;;;;;;;;;;;;;;;5.49;79.60;96608.69;5097169;28;20036;-66
2022/02/23 06:57:22;;;;;;;0.70;0.70;;;;;;;5.51;80.18;96609.53;5096583;28;19919;-65
2022/02/23 06:59:48;;;;;;;0.75;0.70;;;;;;;5.54;80.42;96610.31;5096470;28;20416;-65
2022/02/23 07:02:14;;;;;;;0.82;0.82;;;;;;;5.59;80.23;96605.06;5096348;28;20145;-66
2022/02/23 07:04:41;;;;;;;0.73;0.73;;;;;;;5.67;79.38;96617.91;5096388;28;20012;-65
2022/02/23 07:07:07;;;;;;;1.15;1.05;;;;;;;5.75;78.60;96620.38;5096266;28;20051;-65
2022/02/23 07:09:33;;;;;;;3.35;0.88;;;;;;;5.82;79.92;96625.41;5096288;28;20442;-65
2022/02/23 07:12:04;;;;;;;0.85;0.85;;;;;;;5.86;78.80;96631.41;5096279;28;20377;-66
2022/02/23 07:14:30;;;;;;;2.05;1.13;;;;;;;5.89;75.79;96630.50;5096287;28;20492;-65
2022/02/23 07:16:55;;;;;;;0.90;0.90;;;;;;;5.86;76.32;96633.16;5096274;28;20020;-65
2022/02/23 07:19:21;;;;;;;1.00;0.93;;;;;;;5.84;76.17;96635.75;5095878;28;20067;-65
2022/02/23 07:21:49;;;;;;;1.08;1.00;;;;;;;5.78;77.51;96634.13;5096034;28;20047;-66
2022/02/23 07:24:15;;;;;;;1.17;0.95;;;;;;;5.81;78.07;96630.66;5078006;28;20012;-65
2022/02/23 07:26:40;;;;;;;1.10;0.95;;;;;;;5.89;76.94;96635.69;5096050;28;20028;-66
2022/02/23 07:29:06;;;;;;;1.25;1.10;;;;;;;5.86;77.04;96636.59;5095719;28;20051;-67
2022/02/23 07:31:32;;;;;;;0.93;0.82;;;;;;;5.94;76.96;96645.09;5095897;28;20111;-64
2022/02/23 07:33:57;;;;;;;1.83;1.30;;;;;;;5.90;76.14;96653.84;5095807;28;20385;-64
2022/02/23 07:36:23;;;;;;;0.98;0.88;;;;;;;5.91;75.49;96649.50;5095720;28;20039;-65
2022/02/23 07:38:50;;;;;;;1.13;1.02;;;;;;;5.80;76.54;96653.16;5095828;28;20082;-67
2022/02/23 07:41:22;;;;;;;1.20;1.10;;;;;;;5.78;77.26;96649.72;5095689;28;20115;-65
2022/02/23 07:43:50;;;;;;;1.02;0.93;;;;;;;5.80;75.50;96654.88;5095765;28;20580;-65
2022/02/23 07:46:16;;;;;;;1.13;1.02;;;;;;;5.74;76.79;96655.84;5095498;28;20028;-67
2022/02/23 07:48:42;;;;;;;1.20;1.10;;;;;;;5.75;77.22;96648.94;5095646;28;20434;-65
2022/02/23 07:51:08;;;;;;;1.10;1.00;;;;;;;5.74;76.63;96657.56;5095533;28;20017;-66
2022/02/23 07:53:34;;;;;;;1.42;1.33;;;;;;;5.72;76.55;96661.97;5095325;28;20420;-66
2022/02/23 07:55:59;;;;;;;3.95;1.10;;;;;;;5.75;77.12;96662.75;5095449;28;20028;-64
2022/02/23 07:58:25;;;;;;;1.40;1.30;;;;;;;5.80;76.82;96655.75;5095340;28;20431;-63
2022/02/23 08:00:51;;;;;;;1.55;1.13;;;;;;;5.92;76.88;96661.59;5095475;28;20032;-65
2022/02/23 08:03:16;;;;;;;1.20;1.10;;;;;;;5.93;76.35;96673.72;5095405;28;20016;-65
2022/02/23 08:05:45;;;;;;;1.30;1.20;;;;;;;5.98;76.50;96668.44;5095352;28;20024;-67
2022/02/23 08:08:10;;;;;;;1.02;1.00;;;;;;;6.03;76.99;96671.81;5095296;28;20028;-65
2022/02/23 08:10:36;;;;;;;1.50;1.20;;;;;;;6.08;77.51;96675.19;5095227;28;20077;-66
2022/02/23 08:13:05;;;;;;;1.20;1.10;;;;;;;6.18;76.72;96666.34;5095028;28;20035;-67
2022/02/23 08:21:00;;;;;;;0.70;0.70;;;;;;;6.32;75.87;96678.22;5094968;28;20046;-66
2022/02/23 08:23:26;;;;;;;0.80;0.80;;;;;;;6.38;75.74;96670.31;5094864;28;20431;-68
2022/02/23 08:25:52;;;;;;;0.60;0.60;;;;;;;6.47;74.56;96678.84;5094768;28;20015;-64
2022/02/23 08:28:17;;;;;;;0.80;0.80;;;;;;;6.47;74.55;96677.09;5094994;28;20385;-64
2022/02/23 08:30:43;;;;;;;0.75;0.70;;;;;;;6.50;73.68;96679.63;5094813;28;20024;-65
2022/02/23 08:33:09;;;;;;;0.70;0.70;;;;;;;6.54;72.42;96677.84;5094619;28;20032;-67
2022/02/23 08:35:35;;;;;;;0.60;0.60;;;;;;;6.55;73.30;96680.41;5094729;28;20446;-66
2022/02/23 08:38:00;;;;;;;0.70;0.70;;;;;;;6.61;72.76;96681.16;5094774;28;20103;-65
2022/02/23 08:40:26;;;;;;;0.85;0.85;;;;;;;6.54;71.47;96685.63;5093778;28;20051;-65
2022/02/23 08:42:53;;;;;;;0.70;0.70;;;;;;;6.55;73.20;96679.53;5094631;28;20378;-66
2022/02/23 08:45:19;;;;;;;0.60;0.60;;;;;;;6.57;73.84;96683.81;5094485;28;20027;-66
2022/02/23 08:47:48;;;;;;;0.80;0.80;;;;;;;6.65;73.59;96682.84;5094330;28;20024;-66
2022/02/23 08:50:13;;;;;;;0.82;0.82;;;;;;;6.61;73.40;96679.44;5094467;28;20525;-66
2022/02/23 08:52:39;;;;;;;0.63;0.63;;;;;;;6.65;73.66;96686.28;5094397;28;20111;-68
2022/02/23 08:55:07;;;;;;;0.88;0.88;;;;;;;6.65;73.36;96678.47;5094358;28;20020;-65
2022/02/23 08:57:32;;;;;;;1.10;1.10;;;;;;;6.71;73.41;96687.88;5094308;28;20481;-66
2022/02/23 08:59:58;;;;;;;0.90;0.90;;;;;;;6.69;72.74;96676.69;5094210;28;20055;-65
2022/02/23 09:02:23;;;;;;;0.82;0.82;;;;;;;6.72;73.03;96691.34;5094286;28;20035;-64
2022/02/23 09:04:49;;;;;;;1.10;1.02;;;;;;;6.72;74.39;96680.94;5076065;28;20035;-67
2022/02/23 09:07:15;;;;;;;0.80;0.80;;;;;;;6.80;75.11;96689.44;5094115;28;20016;-66
2022/02/23 09:09:40;;;;;;;0.80;0.80;;;;;;;6.89;74.49;96689.25;5094061;28;20054;-66
2022/02/23 09:12:06;;;;;;;0.93;0.82;;;;;;;7.01;75.81;96695.94;5094119;28;20016;-68
2022/02/23 09:14:32;;;;;;;0.77;0.70;;;;;;;6.98;73.34;96695.16;5093939;28;20048;-68
2022/02/23 09:16:58;;;;;;;2.47;1.65;;;;;;;7.07;74.33;96701.03;5093960;28;20060;-65
2022/02/23 09:19:23;;;;;;;2.47;0.80;;;;;;;7.16;73.17;96693.91;5093703;28;20040;-65
2022/02/23 09:21:49;;;;;;;12.10;6.30;;;;;;;7.25;72.82;96695.47;5093796;28;20534;-68
2022/02/23 09:24:14;;;;;;;0.85;0.85;;;;;;;7.32;73.77;96697.03;5093652;28;20024;-65
2022/02/23 09:26:40;;;;;;;1.02;0.90;;;;;;;7.28;71.43;96700.56;5093782;28;20016;-67
2022/02/23 09:29:06;;;;;;;1.23;0.98;;;;;;;7.28;68.84;96701.44;5093813;28;20470;-65
2022/02/23 09:31:32;;;;;;;6.25;4.22;;;;;;;7.18;69.20;96693.00;5093752;28;20051;-66
2022/02/23 09:33:59;;;;;;;7.18;4.45;;;;;;;7.16;69.80;96701.69;5093585;28;20040;-64
2022/02/23 09:36:24;;;;;;;6.53;4.53;;;;;;;7.20;71.11;96712.00;5093543;28;20556;-65
2022/02/23 09:38:53;;;;;;;2.65;2.22;;;;;;;7.24;69.76;96701.53;5093461;28;20048;-65
2022/02/23 09:41:21;;;;;;;1.30;1.20;;;;;;;7.33;70.80;96710.00;5093575;28;20020;-64
2022/02/23 09:43:50;;;;;;;1.20;1.05;;;;;;;7.43;71.12;96707.19;5093494;28;20024;-67
2022/02/23 09:46:21;;;;;;;1.15;1.00;;;;;;;7.48;68.75;96704.47;5075428;28;20456;-66
2022/02/23 09:48:47;;;;;;;;;;;;;;;7.56;68.81;96710.38;5093713;28;20024;-66
2022/02/23 09:51:13;;;;;;;0.88;0.80;;;;;;;7.61;67.22;96705.06;5093216;28;19918;-67
2022/02/23 09:53:45;;;;;;;1.33;1.13;;;;;;;7.72;67.69;96713.47;5093448;28;20381;-66
2022/02/23 09:56:12;;;;;;;0.88;0.80;;;;;;;7.80;67.70;96706.31;5093454;28;20034;-67
2022/02/23 09:58:38;;;;;;;0.88;0.85;;;;;;;7.95;67.93;96706.84;5093519;28;20466;-67
2022/02/23 10:01:04;;;;;;;0.70;0.70;;;;;;;8.02;64.49;96711.00;5093389;28;20099;-67
2022/02/23 10:03:34;;;;;;;0.30;0.30;;;;;;;7.96;62.58;96711.16;5093228;28;20032;-65
2022/02/23 10:05:59;;;;;;;0.50;0.50;;;;;;;7.99;62.51;96712.84;5093282;28;20062;-68
2022/02/23 10:08:33;;;;;;;0.52;0.52;;;;;;;7.92;63.10;96710.38;5093254;28;20041;-65
2022/02/23 10:11:02;;;;;;;0.90;0.75;;;;;;;7.91;63.96;96705.19;5093086;28;20062;-65
2022/02/23 10:13:28;;;;;;;0.50;0.50;;;;;;;7.99;64.92;96705.00;5093141;28;20038;-66
2022/02/23 10:15:54;;;;;;;0.80;0.80;;;;;;;8.18;63.44;96700.19;5093252;28;20095;-67
2022/02/23 10:18:20;;;;;;;0.40;0.40;;;;;;;8.20;62.15;96694.06;5093093;28;20016;-68
2022/02/23 10:20:47;;;;;;;0.55;0.55;;;;;;;8.22;63.75;96696.63;5092931;28;20094;-65
2022/02/23 10:23:19;;;;;;;0.60;0.60;;;;;;;8.40;61.85;96700.47;5093085;28;20077;-66
2022/02/23 10:26:05;;;;;;;0.50;0.50;;;;;;;8.58;62.10;96701.78;5092959;28;20059;-65
2022/02/23 10:28:34;;;;;;;0.60;0.60;;;;;;;8.57;60.63;96696.59;5093039;28;20070;-68
2022/02/23 10:31:03;;;;;;;0.70;0.70;;;;;;;8.66;61.56;96690.25;5092938;28;20025;-68
2022/02/23 10:33:36;;;;;;;0.60;0.60;;;;;;;8.88;63.05;96689.66;5092838;28;20032;-65
2022/02/23 10:36:18;;;;;;;0.60;0.60;;;;;;;9.07;60.88;96693.47;5092823;28;20040;-67
2022/02/23 10:38:46;;;;;;;0.50;0.50;;;;;;;9.12;60.42;96692.47;5092875;28;20031;-65
2022/02/23 10:41:30;;;;;;;0.43;0.43;;;;;;;9.05;59.88;96687.41;5092990;28;20013;-65
2022/02/23 10:43:56;;;;;;;0.50;0.50;;;;;;;8.95;60.05;96685.97;5092898;28;20478;-66
2022/02/23 10:46:23;;;;;;;0.60;0.60;;;;;;;8.96;57.50;96687.69;5092790;28;20024;-66
2022/02/23 10:48:52;;;;;;;0.50;0.43;;;;;;;8.78;57.74;96682.09;5092713;28;20059;-66
2022/02/23 10:51:27;;;;;;;0.50;0.50;;;;;;;8.78;60.27;96681.25;5092780;28;20063;-68
2022/02/23 10:53:53;;;;;;;0.60;0.60;;;;;;;8.91;60.20;96679.97;5092628;28;20111;-66
2022/02/23 10:56:22;;;;;;;0.57;0.57;;;;;;;9.06;56.38;96681.28;5092672;28;20064;-64
2022/02/23 10:59:19;;;;;;;0.60;0.60;;;;;;;9.19;58.22;96686.16;5092838;28;20078;-65
2022/02/23 11:01:48;;;;;;;0.60;0.60;;;;;;;9.56;56.89;96681.53;5092885;28;20024;-67
2022/02/23 11:04:15;;;;;;;0.73;0.73;;;;;;;9.72;56.15;96682.75;5096471;28;20024;-65
2022/02/23 11:06:43;;;;;;;0.70;0.70;;;;;;;9.52;55.36;96682.56;5096611;28;20493;-65
2022/02/23 11:09:10;;;;;;;0.70;0.70;;;;;;;9.11;54.30;96681.16;5096641;28;20024;-67
2022/02/23 11:11:37;;;;;;;0.70;0.70;;;;;;;8.86;55.56;96679.28;5096640;28;20462;-65
2022/02/23 11:14:07;;;;;;;0.70;0.70;;;;;;;8.88;58.35;96677.47;5096363;28;20020;-65
2022/02/23 11:16:33;;;;;;;0.77;0.77;;;;;;;8.75;55.79;96681.31;5096759;28;20024;-65
2022/02/23 11:19:02;;;;;;;0.80;0.80;;;;;;;8.67;56.47;96678.97;5095960;28;20069;-68
2022/02/23 11:21:34;;;;;;;0.75;0.75;;;;;;;8.69;58.07;96687.56;5096281;28;20027;-65
2022/02/23 11:24:03;;;;;;;0.88;0.88;;;;;;;8.61;57.62;96694.78;5096203;28;20118;-68
2022/02/23 11:26:32;;;;;;;1.00;0.80;;;;;;;8.45;58.25;96688.19;5096280;28;20381;-66
2022/02/23 11:29:15;;;;;;;1.02;1.00;;;;;;;8.59;58.83;96694.81;5096025;28;20020;-65
2022/02/23 11:31:41;;;;;;;0.90;0.90;;;;;;;8.53;56.69;96693.19;5096159;28;20024;-64
2022/02/23 11:34:08;;;;;;;0.90;0.90;;;;;;;8.44;57.90;96689.09;5095804;28;20032;-68
2022/02/23 11:36:39;;;;;;;0.88;0.88;;;;;;;8.45;58.22;96685.59;5095922;28;20035;-67
2022/02/23 11:39:08;;;;;;;0.70;0.70;;;;;;;8.50;57.55;96688.06;5095995;28;20024;-67
2022/02/23 11:41:39;;;;;;;0.85;0.85;;;;;;;8.44;59.30;96677.81;5095806;28;20032;-65
2022/02/23 11:44:07;;;;;;;0.75;0.75;;;;;;;8.42;59.48;96672.63;5095884;28;20032;-64